Time;durP1;ratioP1;P1;durP2;ratioP2;P2;SDS_P1;SDS_P2;PMS_P1;PMS_P2;Temp;Humidity;BMP_temperature;BMP_pressure;BME280_temperature;BME280_humidity;BME280_pressure;Samples;Min_cycle;Max_cycle;Signal;HPM_P1;HPM_P2
2022/03/10 00:02:14;;;;;;;24.30;17.63;;;2.30;32.40;;;2.02;63.85;102355.72;4960085;28;20506;-77
2022/03/10 00:04:45;;;;;;;21.65;16.15;;;2.30;34.10;;;2.02;63.82;102363.72;4979071;28;20168;-75
2022/03/10 00:07:14;;;;;;;23.90;16.58;;;2.20;35.60;;;2.02;64.04;102366.38;4976834;28;20191;-76
2022/03/10 00:09:43;;;;;;;25.55;16.55;;;2.20;37.00;;;2.13;63.82;102371.78;4977897;28;20184;-75
2022/03/10 00:12:11;;;;;;;28.15;18.40;;;2.30;38.20;;;2.16;63.73;102379.59;4977131;28;20779;-76
2022/03/10 00:14:42;;;;;;;21.83;15.98;;;2.30;38.70;;;2.27;63.16;102375.28;4977484;28;20176;-75
2022/03/10 00:17:11;;;;;;;22.70;15.38;;;2.30;38.70;;;2.24;63.42;102375.50;4976007;28;20274;-75
2022/03/10 00:19:40;;;;;;;23.63;15.18;;;2.30;38.40;;;2.29;63.24;102378.69;4976541;28;20208;-75
2022/03/10 00:22:11;;;;;;;27.27;19.08;;;2.40;39.20;;;2.24;63.45;102388.84;5003647;23;20231;-74
2022/03/10 00:24:40;;;;;;;23.45;16.27;;;2.40;39.00;;;2.15;63.73;102385.88;4989539;28;20191;-74
2022/03/10 00:27:09;;;;;;;24.05;16.02;;;2.30;39.60;;;2.04;64.03;102380.47;4993777;28;20211;-74
2022/03/10 00:29:38;;;;;;;28.10;18.45;;;2.30;40.60;;;2.08;64.18;102386.47;4991863;28;20200;-74
2022/03/10 00:32:08;;;;;;;24.05;17.98;;;2.20;42.20;;;1.99;64.42;102389.75;4990298;28;20231;-73
2022/03/10 00:34:37;;;;;;;24.92;17.70;;;2.20;43.10;;;1.91;64.46;102398.34;4987490;28;20195;-73
2022/03/10 00:37:07;;;;;;;33.03;17.75;;;2.10;44.80;;;1.81;65.00;102394.63;4994592;23;20240;-68
2022/03/10 00:39:39;;;;;;;24.52;18.85;;;2.10;46.40;;;1.77;65.34;102395.81;4938582;29;20169;-68
2022/03/10 00:42:08;;;;;;;29.00;17.98;;;2.00;49.00;;;1.79;65.74;102399.22;4938958;29;20257;-69
2022/03/10 00:44:37;;;;;;;29.52;18.70;;;2.00;51.70;;;1.77;65.70;102401.13;4940517;29;20640;-70
2022/03/10 00:47:06;;;;;;;25.58;17.02;;;2.00;54.10;;;1.71;65.91;102401.56;4940224;29;20272;-69
2022/03/10 00:49:35;;;;;;;30.67;19.80;;;1.90;56.60;;;1.80;65.74;102400.91;4939374;29;20201;-70
2022/03/10 00:52:07;;;;;;;27.65;18.42;;;2.00;58.60;;;1.78;65.62;102402.84;4938469;29;20193;-69
2022/03/10 00:54:37;;;;;;;26.90;18.73;;;1.90;57.70;;;1.57;66.17;102404.34;4938539;29;20646;-68
2022/03/10 00:57:08;;;;;;;30.67;18.42;;;1.80;57.70;;;1.55;66.54;102412.47;4938459;29;20593;-68
2022/03/10 00:59:37;;;;;;;27.63;19.10;;;1.80;62.90;;;1.66;66.58;102415.22;4938572;29;20200;-69
2022/03/10 01:02:05;;;;;;;31.02;19.00;;;1.80;66.10;;;1.47;66.79;102420.16;4938426;29;20593;-69
2022/03/10 01:04:35;;;;;;;29.10;19.52;;;1.70;65.00;;;1.49;67.14;102412.91;4938273;29;20680;-67
2022/03/10 01:07:04;;;;;;;29.90;18.00;;;1.70;66.50;;;1.36;66.73;102419.16;4938111;29;20216;-69
2022/03/10 01:09:33;;;;;;;25.35;19.48;;;1.60;67.40;;;1.36;66.59;102413.84;4938195;29;20173;-69
2022/03/10 01:12:04;;;;;;;24.70;18.08;;;1.60;69.10;;;1.31;67.00;102424.81;4938094;29;20664;-69
2022/03/10 01:14:33;;;;;;;31.88;18.92;;;1.50;71.90;;;1.11;67.34;102430.69;4937966;29;20212;-69
2022/03/10 01:17:02;;;;;;;29.75;17.27;;;1.40;73.30;;;1.15;67.58;102427.72;4937842;29;20279;-68
2022/03/10 01:19:31;;;;;;;31.40;18.88;;;1.40;80.70;;;1.08;67.61;102429.06;4938215;29;20289;-70
2022/03/10 01:22:00;;;;;;;27.50;20.50;;;1.30;83.10;;;0.88;68.12;102426.88;4938060;29;20191;-67
2022/03/10 01:24:29;;;;;;;28.35;18.40;;;1.20;85.60;;;0.90;68.84;102435.63;4938136;29;20664;-68
2022/03/10 01:26:58;;;;;;;26.05;18.70;;;1.20;91.00;;;0.94;68.66;102426.47;4937834;29;20209;-68
2022/03/10 01:29:28;;;;;;;28.25;19.50;;;1.20;93.00;;;0.83;68.98;102435.19;4938185;29;20548;-68
2022/03/10 01:31:57;;;;;;;30.92;17.90;;;1.10;93.40;;;0.94;68.96;102430.94;4937514;29;20294;-68
2022/03/10 01:34:26;;;;;;;28.17;20.15;;;1.20;94.80;;;0.92;68.65;102428.38;4937436;29;20248;-68
2022/03/10 01:36:55;;;;;;;32.40;21.15;;;1.20;94.40;;;0.96;69.02;102432.56;4937157;29;20307;-68
2022/03/10 01:39:24;;;;;;;28.95;19.65;;;1.20;94.80;;;1.00;68.86;102431.41;4937545;29;20178;-69
2022/03/10 01:41:53;;;;;;;31.85;21.95;;;1.20;95.80;;;1.01;69.10;102427.78;4937330;29;20580;-68
2022/03/10 01:44:22;;;;;;;32.95;20.67;;;1.20;96.30;;;1.10;68.61;102413.84;4937721;29;20581;-69
2022/03/10 01:46:52;;;;;;;31.13;19.75;;;1.20;96.90;;;1.10;68.54;102416.50;4937403;29;20205;-69
2022/03/10 01:49:21;;;;;;;30.80;20.80;;;1.30;96.40;;;1.05;69.16;102413.28;4937847;29;20549;-69
2022/03/10 01:51:53;;;;;;;31.00;19.90;;;1.20;96.70;;;1.06;69.13;102420.34;4920141;29;20232;-68
2022/03/10 01:54:22;;;;;;;31.70;20.42;;;1.20;97.30;;;1.19;68.78;102423.88;4937258;29;20284;-69
2022/03/10 01:56:54;;;;;;;32.38;21.90;;;1.30;98.00;;;1.26;68.77;102427.81;4973948;28;20225;-69
2022/03/10 01:59:24;;;;;;;31.08;22.23;;;1.30;97.30;;;1.28;68.38;102425.03;4976210;28;20183;-70
2022/03/10 02:01:57;;;;;;;31.05;20.02;;;1.40;96.80;;;1.26;68.53;102422.47;4976271;28;20223;-69
2022/03/10 02:04:26;;;;;;;33.53;21.88;;;1.40;96.30;;;1.20;68.36;102425.59;4976176;28;20180;-69
2022/03/10 02:06:57;;;;;;;28.85;18.45;;;1.40;95.70;;;1.07;68.98;102427.34;4976335;28;20207;-69
2022/03/10 02:12:13;;;;;;;39.30;22.23;;;1.30;98.30;;;1.19;69.17;102434.53;4975685;28;20172;-69
2022/03/10 02:17:30;;;;;;;26.70;20.10;;;1.40;98.20;;;1.25;68.96;102431.47;4975904;28;20211;-69
2022/03/10 02:20:00;;;;;;;36.40;20.40;;;1.40;98.30;;;1.39;69.11;102422.50;4975939;28;20202;-69
2022/03/10 02:22:30;;;;;;;32.25;21.80;;;1.50;98.60;;;1.41;68.91;102430.38;4975778;28;20582;-69
2022/03/10 02:24:59;;;;;;;31.20;20.70;;;1.50;98.10;;;1.43;68.55;102437.34;4975715;28;20255;-69
2022/03/10 02:27:29;;;;;;;27.40;17.55;;;1.50;97.60;;;1.40;68.89;102431.38;4975598;28;20203;-69
2022/03/10 02:30:01;;;;;;;34.88;22.73;;;1.60;97.10;;;1.51;68.58;102431.44;4975261;28;20192;-69
2022/03/10 02:32:29;;;;;;;33.55;21.00;;;1.60;97.30;;;1.46;68.43;102433.59;4975649;28;20259;-68
2022/03/10 02:34:59;;;;;;;31.08;21.60;;;1.60;97.40;;;1.45;69.70;102442.56;4967965;28;20652;-69
2022/03/10 02:37:29;;;;;;;29.45;21.02;;;1.60;99.40;;;1.45;68.79;102450.56;4975269;28;20222;-69
2022/03/10 02:39:58;;;;;;;37.47;22.00;;;1.60;98.20;;;1.41;68.63;102452.56;4975546;28;20175;-69
2022/03/10 02:42:26;;;;;;;38.92;21.40;;;1.60;97.20;;;1.27;69.19;102456.19;4958102;28;20230;-69
2022/03/10 02:44:55;;;;;;;30.10;21.70;;;1.50;97.90;;;1.31;69.31;102455.03;4974778;28;20226;-69
2022/03/10 02:47:25;;;;;;;29.38;20.25;;;1.50;99.00;;;1.19;69.63;102453.19;4974261;28;20258;-69
2022/03/10 02:49:54;;;;;;;41.25;22.48;;;1.40;99.70;;;1.19;69.62;102461.19;4974725;28;20195;-69
2022/03/10 02:52:24;;;;;;;31.90;20.15;;;1.40;99.90;;;1.20;69.36;102462.91;4974759;28;20180;-68
2022/03/10 02:54:54;;;;;;;33.58;21.33;;;1.40;99.90;;;1.11;69.69;102466.22;4974332;28;20583;-68
2022/03/10 02:57:27;;;;;;;34.85;19.02;;;1.30;99.80;;;1.01;70.11;102459.78;4974791;28;20214;-69
2022/03/10 02:59:56;;;;;;;31.50;21.50;;;1.30;99.90;;;1.01;70.14;102459.78;4974503;28;20191;-68
2022/03/10 03:02:25;;;;;;;32.88;21.25;;;1.30;99.90;;;1.02;70.38;102458.78;4974656;28;20195;-69
2022/03/10 03:04:54;;;;;;;33.00;19.80;;;1.20;99.90;;;1.15;69.93;102466.84;4974347;28;20183;-69
2022/03/10 03:07:24;;;;;;;37.70;21.33;;;1.30;99.90;;;1.17;70.12;102462.25;4974433;28;20207;-68
2022/03/10 03:09:55;;;;;;;37.08;23.05;;;1.30;99.90;;;1.23;69.66;102460.03;4974713;28;20342;-69
2022/03/10 03:12:24;;;;;;;33.58;21.52;;;1.40;99.90;;;1.19;69.65;102461.19;4974767;28;20195;-69
2022/03/10 03:14:52;;;;;;;36.20;20.20;;;1.40;99.90;;;1.14;69.62;102463.31;4974575;28;20262;-68
2022/03/10 03:17:21;;;;;;;33.60;23.35;;;1.30;99.90;;;1.14;69.67;102463.31;4974532;28;20234;-68
2022/03/10 03:19:50;;;;;;;29.65;20.40;;;1.30;99.90;;;1.13;70.26;102460.75;4974293;28;20167;-68
2022/03/10 03:22:19;;;;;;;33.35;23.70;;;1.30;99.90;;;1.13;70.31;102460.75;4974492;28;20168;-69
2022/03/10 03:24:48;;;;;;;32.03;21.42;;;1.30;99.90;;;1.19;70.13;102458.53;4974380;28;20266;-69
2022/03/10 03:27:18;;;;;;;34.30;22.88;;;1.30;99.90;;;1.29;69.63;102459.63;4974198;28;20211;-69
2022/03/10 03:29:49;;;;;;;34.35;21.58;;;1.40;99.90;;;1.24;69.82;102471.56;4974442;28;20676;-69
2022/03/10 03:32:19;;;;;;;35.30;21.58;;;1.40;99.90;;;1.19;69.84;102466.53;4974478;28;20263;-69
2022/03/10 03:34:48;;;;;;;33.42;21.05;;;1.40;99.90;;;1.23;69.90;102470.69;4974364;28;20290;-69
2022/03/10 03:37:17;;;;;;;34.13;21.52;;;1.40;99.90;;;1.24;69.49;102479.56;4974190;28;20235;-69
2022/03/10 03:39:45;;;;;;;29.38;22.40;;;1.40;99.90;;;1.25;69.56;102484.81;4974113;28;20274;-68
2022/03/10 03:42:14;;;;;;;32.40;19.60;;;1.40;99.90;;;1.24;69.66;102488.41;4973896;28;20749;-70
2022/03/10 03:44:44;;;;;;;35.08;21.88;;;1.40;99.90;;;1.11;69.87;102487.53;4973770;28;20176;-69
2022/03/10 03:47:13;;;;;;;37.22;22.35;;;1.30;99.90;;;1.11;69.81;102481.34;4973875;28;20746;-68
2022/03/10 03:49:42;;;;;;;33.30;19.98;;;1.30;99.90;;;1.03;69.90;102487.16;4973921;28;20179;-68
2022/03/10 03:52:11;;;;;;;35.83;22.42;;;1.20;99.90;;;0.93;70.20;102499.41;4956704;28;20285;-68
2022/03/10 03:54:40;;;;;;;32.38;22.33;;;1.20;99.90;;;0.93;70.39;102498.53;4973844;28;20203;-68
2022/03/10 03:57:08;;;;;;;40.80;24.65;;;1.10;99.90;;;0.99;70.44;102499.00;4973800;28;20203;-68
2022/03/10 03:59:37;;;;;;;39.85;27.10;;;1.10;99.90;;;0.92;70.77;102503.00;4977462;28;20180;-69
2022/03/10 04:02:08;;;;;;;40.42;22.83;;;1.10;99.90;;;0.96;70.78;102498.34;4977843;28;20207;-70
2022/03/10 04:04:37;;;;;;;33.28;21.92;;;1.10;99.90;;;0.90;70.92;102498.75;4977974;28;20263;-69
2022/03/10 04:07:06;;;;;;;35.42;21.45;;;1.10;99.90;;;0.99;70.74;102499.00;4978355;28;20234;-69
2022/03/10 04:09:35;;;;;;;32.85;22.48;;;1.10;99.90;;;1.04;70.87;102496.88;4978266;28;20676;-69
2022/03/10 04:12:05;;;;;;;29.70;19.17;;;1.20;99.90;;;1.05;70.62;102501.28;4978131;28;20200;-69
2022/03/10 04:14:34;;;;;;;31.92;21.52;;;1.20;99.90;;;0.99;70.58;102504.34;4979735;28;20195;-70
2022/03/10 04:17:03;;;;;;;32.97;21.63;;;1.20;99.90;;;1.06;70.48;102510.13;4978418;28;20575;-70
2022/03/10 04:19:33;;;;;;;37.80;24.42;;;1.20;99.90;;;1.02;70.34;102509.44;4977489;28;20203;-69
2022/03/10 04:22:03;;;;;;;36.22;21.98;;;1.20;99.90;;;0.91;70.94;102506.66;4977571;28;20175;-68
2022/03/10 04:24:32;;;;;;;32.88;20.25;;;1.20;99.90;;;0.95;70.72;102508.16;4977335;28;20574;-69
2022/03/10 04:27:01;;;;;;;35.28;21.45;;;1.20;99.90;;;1.00;70.77;102510.53;4977345;28;20267;-69
2022/03/10 04:29:30;;;;;;;38.33;22.10;;;1.20;99.90;;;1.00;70.75;102514.06;4978446;28;20279;-69
2022/03/10 04:31:59;;;;;;;36.45;23.10;;;1.20;99.90;;;1.05;70.60;102508.41;4978664;28;20255;-69
2022/03/10 04:34:28;;;;;;;32.88;22.23;;;1.20;99.90;;;1.09;70.54;102510.78;4978349;28;20198;-69
2022/03/10 04:36:58;;;;;;;35.47;22.30;;;1.30;99.90;;;1.15;70.62;102505.03;4977659;28;20211;-68
2022/03/10 04:39:27;;;;;;;40.45;22.52;;;1.30;99.90;;;1.09;70.63;102513.44;4959556;28;20198;-69
2022/03/10 04:41:56;;;;;;;34.53;22.25;;;1.30;99.90;;;1.14;70.50;102516.66;4970372;28;20199;-69
2022/03/10 04:44:25;;;;;;;33.63;21.27;;;1.30;99.90;;;1.23;69.80;102513.38;4978772;28;20188;-70
2022/03/10 04:46:54;;;;;;;34.28;21.02;;;1.30;99.90;;;1.31;69.57;102521.69;4979167;28;20208;-69
2022/03/10 04:49:24;;;;;;;35.42;20.83;;;1.40;99.90;;;1.28;69.60;102521.91;4978506;28;20180;-70
2022/03/10 04:51:52;;;;;;;31.55;21.23;;;1.40;99.90;;;1.17;69.62;102529.78;4977952;28;20192;-69
2022/03/10 04:54:23;;;;;;;34.67;21.60;;;1.40;99.90;;;1.27;69.48;102525.53;4978075;28;20223;-70
2022/03/10 04:56:52;;;;;;;33.75;21.90;;;1.40;99.90;;;1.26;69.66;102529.16;4977978;28;20215;-70
2022/03/10 04:59:20;;;;;;;35.03;23.45;;;1.40;99.90;;;1.19;70.11;102525.22;4976254;28;20204;-69
2022/03/10 05:01:49;;;;;;;34.47;22.05;;;1.40;99.90;;;1.19;70.10;102527.00;4959359;28;20246;-70
2022/03/10 05:04:18;;;;;;;34.90;22.15;;;1.40;99.90;;;1.05;70.54;102524.41;4976351;28;20635;-69
2022/03/10 05:06:47;;;;;;;35.47;23.50;;;1.30;99.90;;;1.03;70.51;102516.50;4975943;28;20243;-68
2022/03/10 05:09:16;;;;;;;36.92;23.40;;;1.30;99.90;;;0.91;71.02;102517.31;4975850;28;20226;-68
2022/03/10 05:11:46;;;;;;;36.97;22.15;;;1.20;99.90;;;1.00;70.83;102516.72;4976092;28;20179;-68
2022/03/10 05:14:15;;;;;;;35.30;21.23;;;1.20;99.90;;;0.99;71.09;102515.00;4976277;28;20235;-68
2022/03/10 05:16:44;;;;;;;40.15;23.42;;;1.20;99.90;;;0.94;70.87;102517.09;4976259;28;20246;-69
2022/03/10 05:19:13;;;;;;;42.33;22.52;;;1.20;99.90;;;0.92;71.28;102519.00;4976441;28;20171;-69
2022/03/10 05:21:42;;;;;;;40.95;24.80;;;1.20;99.90;;;1.01;70.82;102523.75;4976246;28;20552;-68
2022/03/10 05:24:12;;;;;;;33.08;22.98;;;1.20;99.90;;;0.97;71.19;102522.22;4976231;28;20741;-68
2022/03/10 05:26:41;;;;;;;35.53;24.08;;;1.20;99.90;;;0.99;70.97;102528.31;4976036;28;20206;-69
2022/03/10 05:29:12;;;;;;;47.90;23.75;;;1.20;99.90;;;1.11;70.72;102534.69;4976214;28;20204;-68
2022/03/10 05:31:41;;;;;;;44.55;22.98;;;1.30;99.90;;;1.08;70.58;102534.84;4976231;28;20259;-69
2022/03/10 05:34:10;;;;;;;41.60;24.05;;;1.30;99.90;;;1.06;70.70;102532.31;4976432;28;20648;-68
2022/03/10 05:36:41;;;;;;;38.13;24.58;;;1.30;99.90;;;1.05;71.12;102529.75;4975619;28;20221;-69
2022/03/10 05:39:10;;;;;;;41.67;24.30;;;1.20;99.90;;;1.04;70.94;102536.88;4976291;28;20206;-68
2022/03/10 05:41:42;;;;;;;39.55;26.25;;;1.20;99.90;;;1.23;70.69;102536.50;4976253;28;20259;-68
2022/03/10 05:44:12;;;;;;;32.40;23.13;;;1.30;99.90;;;1.32;70.17;102525.22;4976208;28;20178;-69
2022/03/10 05:46:44;;;;;;;34.10;23.05;;;1.40;99.90;;;1.29;70.58;102534.31;4975843;28;20560;-68
2022/03/10 05:49:13;;;;;;;38.60;24.85;;;1.40;99.90;;;1.25;70.61;102534.63;4977909;28;20685;-67
2022/03/10 05:51:41;;;;;;;38.90;24.60;;;1.40;99.90;;;1.22;70.80;102535.66;4984532;28;20537;-69
2022/03/10 05:54:10;;;;;;;35.72;23.52;;;1.40;99.90;;;1.28;70.58;102537.06;4985055;28;20172;-69
2022/03/10 05:56:39;;;;;;;36.13;25.05;;;1.40;99.90;;;1.22;70.74;102540.13;4983755;28;20546;-68
2022/03/10 05:59:08;;;;;;;40.33;24.70;;;1.40;99.90;;;1.26;70.57;102545.16;4986355;28;20176;-68
2022/03/10 06:01:38;;;;;;;42.00;24.40;;;1.40;99.90;;;1.37;70.32;102541.78;4988606;28;20239;-69
2022/03/10 06:04:07;;;;;;;43.15;25.52;;;1.50;99.90;;;1.49;69.98;102535.63;4989176;28;20234;-69
2022/03/10 06:06:37;;;;;;;44.08;24.63;;;1.60;99.90;;;1.61;69.51;102544.59;4981392;28;20671;-69
2022/03/10 06:09:06;;;;;;;38.78;23.33;;;1.60;99.90;;;1.62;69.48;102544.50;4977186;28;20713;-69
2022/03/10 06:11:34;;;;;;;39.35;24.63;;;1.70;99.90;;;1.69;69.26;102544.97;4975841;28;20291;-70
2022/03/10 06:14:04;;;;;;;40.72;24.55;;;1.70;99.90;;;1.72;69.38;102558.09;4975986;28;20184;-70
2022/03/10 06:16:32;;;;;;;37.67;25.75;;;1.80;99.90;;;1.77;69.28;102553.28;4975705;28;20195;-70
2022/03/10 06:19:03;;;;;;;35.35;23.55;;;1.90;99.90;;;1.87;69.12;102559.72;4975355;28;20600;-70
2022/03/10 06:21:33;;;;;;;35.78;21.63;;;1.90;99.90;;;2.09;68.27;102561.72;4974639;28;20328;-71
2022/03/10 06:24:02;;;;;;;32.58;23.40;;;2.00;98.90;;;2.15;68.05;102562.16;4975244;28;20532;-69
2022/03/10 06:26:32;;;;;;;39.53;23.80;;;2.10;97.30;;;2.25;67.90;102561.53;4975190;28;20175;-70
2022/03/10 06:29:01;;;;;;;35.40;23.88;;;2.20;96.50;;;2.28;67.65;102571.97;4975563;28;20644;-70
2022/03/10 06:31:35;;;;;;;36.83;23.95;;;2.30;95.30;;;2.38;67.41;102565.88;4975715;28;20263;-69
2022/03/10 06:34:05;;;;;;;41.33;24.50;;;2.40;94.40;;;2.58;66.81;102569.81;4975090;28;20196;-69
2022/03/10 06:36:34;;;;;;;40.28;26.77;;;2.50;92.60;;;2.54;66.98;102576.34;4974715;28;20226;-70
2022/03/10 06:39:03;;;;;;;41.22;24.80;;;2.60;91.90;;;2.71;66.44;102573.31;4985346;23;20222;-72
2022/03/10 06:41:32;;;;;;;36.42;24.17;;;2.60;91.20;;;2.69;66.71;102577.06;4974944;28;20191;-71
2022/03/10 06:44:01;;;;;;;37.35;23.10;;;2.70;90.20;;;2.74;66.80;102582.94;4977771;28;20202;-72
2022/03/10 06:46:30;;;;;;;40.85;24.40;;;2.70;90.00;;;2.84;66.41;102592.88;4990470;28;20191;-71
2022/03/10 06:48:59;;;;;;;40.13;24.15;;;2.80;88.10;;;3.01;65.94;102595.16;4988032;28;20557;-71
2022/03/10 06:51:29;;;;;;;40.03;22.27;;;2.90;85.00;;;3.05;65.73;102588.59;4976470;28;20655;-72
2022/03/10 06:53:58;;;;;;;38.08;23.20;;;3.00;83.70;;;3.27;65.14;102589.72;4973990;28;20258;-72
2022/03/10 06:56:27;;;;;;;38.75;25.90;;;3.10;78.70;;;3.34;64.77;102596.34;4973968;28;20294;-72
2022/03/10 06:58:56;;;;;;;41.30;23.23;;;3.30;75.10;;;3.43;64.58;102601.00;4974267;28;20207;-72
2022/03/10 07:01:43;;;;;;;42.90;25.35;;;3.30;73.30;;;3.48;64.75;102593.47;4956870;28;20199;-71
2022/03/10 07:04:30;;;;;;;34.15;25.67;;;3.40;71.80;;;3.57;64.09;102597.28;4957321;28;20282;-71
2022/03/10 07:07:11;;;;;;;36.33;23.88;;;3.50;68.00;;;3.58;64.12;102602.53;4974157;28;20194;-72
2022/03/10 07:09:48;;;;;;;31.50;23.45;;;3.50;65.90;;;3.68;63.99;102594.66;4988464;28;20219;-71
2022/03/10 07:12:18;;;;;;;33.25;22.45;;;3.60;64.50;;;3.68;63.89;102606.19;4974459;28;20543;-70
2022/03/10 07:14:47;;;;;;;41.38;24.05;;;3.60;64.50;;;3.82;63.58;102602.50;4974253;28;20188;-70
2022/03/10 07:17:16;;;;;;;47.45;27.15;;;3.70;61.70;;;3.92;63.19;102600.81;4973284;28;20266;-71
2022/03/10 07:19:46;;;;;;;39.25;25.35;;;3.80;60.40;;;3.91;63.45;102605.31;4959449;28;20226;-71
2022/03/10 07:22:20;;;;;;;43.17;27.02;;;3.80;59.00;;;3.98;63.17;102615.53;4980621;28;20191;-71
2022/03/10 07:24:49;;;;;;;35.40;25.40;;;3.90;58.20;;;4.12;63.10;102621.53;4976783;28;20167;-70
2022/03/10 07:27:19;;;;;;;37.65;23.77;;;4.00;58.00;;;4.23;63.21;102618.91;4973564;28;20278;-72
2022/03/10 07:29:48;;;;;;;38.53;25.23;;;4.10;57.40;;;4.39;62.75;102623.94;4973816;28;20207;-71
2022/03/10 07:32:17;;;;;;;32.78;23.00;;;4.20;56.80;;;4.43;62.54;102625.38;4974092;28;20187;-70
2022/03/10 07:34:47;;;;;;;38.00;23.60;;;4.30;55.00;;;4.52;62.51;102630.03;4968782;28;20187;-70
2022/03/10 07:37:16;;;;;;;40.33;26.65;;;4.40;54.70;;;4.50;63.00;102631.13;4972088;28;20206;-70
2022/03/10 07:39:47;;;;;;;42.75;24.25;;;4.40;54.40;;;4.67;62.38;102634.19;4972417;28;20597;-70
2022/03/10 07:42:16;;;;;;;38.13;24.42;;;4.60;55.20;;;4.89;62.27;102635.16;4956468;28;20214;-71
2022/03/10 07:44:45;;;;;;;37.88;25.45;;;4.70;54.10;;;4.96;62.03;102636.34;4972483;28;20183;-71
2022/03/10 07:47:14;;;;;;;36.72;24.48;;;4.80;52.10;;;5.05;61.90;102631.09;4979731;28;20187;-71
2022/03/10 07:49:43;;;;;;;38.25;24.52;;;5.00;51.10;;;5.10;61.92;102638.78;4991344;28;20216;-71
2022/03/10 07:52:12;;;;;;;41.17;26.25;;;5.00;51.40;;;5.31;61.78;102637.03;4989680;28;20167;-71
2022/03/10 07:54:41;;;;;;;34.85;24.20;;;5.10;51.30;;;5.41;61.55;102645.19;4990319;28;20191;-70
2022/03/10 07:57:12;;;;;;;35.50;22.65;;;5.20;51.00;;;5.33;62.31;102639.56;4990693;28;20207;-72
2022/03/10 07:59:41;;;;;;;35.47;22.95;;;5.20;50.90;;;5.35;62.24;102643.84;4974158;28;20274;-71
2022/03/10 08:02:11;;;;;;;36.83;22.17;;;5.20;51.30;;;5.36;61.99;102642.88;4991121;28;20202;-71
2022/03/10 08:04:49;;;;;;;34.42;23.23;;;5.20;50.40;;;5.47;62.13;102642.84;4993285;28;20197;-71
2022/03/10 08:07:32;;;;;;;30.55;23.38;;;5.30;51.20;;;5.27;62.78;102649.00;4975484;28;20205;-73
2022/03/10 08:10:17;;;;;;;36.95;24.63;;;5.20;51.00;;;5.28;62.50;102645.31;4991471;28;20223;-70
2022/03/10 08:12:57;;;;;;;37.80;24.17;;;5.20;51.60;;;5.50;62.53;102645.28;4993234;28;20202;-71
2022/03/10 08:15:35;;;;;;;38.35;23.05;;;5.30;52.80;;;5.56;62.25;102638.56;4975739;28;20191;-70
2022/03/10 08:18:08;;;;;;;34.70;23.40;;;5.40;52.00;;;5.60;62.41;102648.91;4991297;28;20263;-69
2022/03/10 08:20:39;;;;;;;32.65;25.13;;;5.50;52.00;;;5.73;62.18;102650.56;4973780;28;20215;-71
2022/03/10 08:23:09;;;;;;;35.92;23.60;;;5.60;51.40;;;5.66;62.23;102644.88;4991146;28;20183;-71
2022/03/10 08:25:38;;;;;;;41.05;26.35;;;5.60;51.30;;;5.77;61.87;102652.00;4989972;28;20179;-70
2022/03/10 08:28:09;;;;;;;38.63;23.73;;;5.60;50.40;;;5.86;61.94;102651.22;4988881;28;20219;-68
2022/03/10 08:30:39;;;;;;;43.10;23.65;;;5.70;49.80;;;6.02;61.41;102652.53;4980683;28;20299;-73
2022/03/10 08:33:08;;;;;;;32.70;22.95;;;5.80;49.00;;;6.06;61.47;102656.66;4983885;28;20207;-71
2022/03/10 08:35:37;;;;;;;36.60;23.38;;;6.00;48.00;;;6.06;61.24;102656.66;4987831;28;20201;-73
2022/03/10 08:38:07;;;;;;;41.90;24.55;;;6.00;46.80;;;6.17;61.30;102657.59;4986885;28;20199;-72
2022/03/10 08:40:36;;;;;;;32.35;24.10;;;6.00;46.90;;;6.13;61.21;102657.00;4970262;28;20283;-71
2022/03/10 08:43:08;;;;;;;35.47;23.20;;;6.00;46.20;;;6.15;61.20;102646.97;4983897;28;20176;-74
2022/03/10 08:45:39;;;;;;;34.03;23.50;;;6.00;46.30;;;6.07;61.79;102655.69;4979341;28;20229;-72
2022/03/10 08:48:08;;;;;;;31.13;22.05;;;6.00;46.40;;;6.22;61.20;102658.91;4978570;28;20211;-69
2022/03/10 08:50:38;;;;;;;33.67;24.42;;;6.10;46.00;;;6.23;61.25;102663.31;4977345;28;20207;-73
2022/03/10 08:53:08;;;;;;;32.50;23.33;;;6.10;46.20;;;6.30;61.09;102653.72;4976779;28;20188;-71
2022/03/10 08:55:37;;;;;;;33.50;23.92;;;6.10;45.60;;;6.46;60.43;102656.81;4960820;28;20191;-74
2022/03/10 08:58:07;;;;;;;35.08;22.45;;;6.20;44.70;;;6.64;60.49;102656.19;4961725;28;20239;-72
2022/03/10 09:00:40;;;;;;;33.78;24.10;;;6.40;44.10;;;6.75;59.78;102667.72;4978629;28;20266;-73
2022/03/10 09:03:12;;;;;;;33.05;24.00;;;6.50;43.20;;;6.86;59.91;102664.94;4984106;28;20225;-71
2022/03/10 09:05:42;;;;;;;34.88;23.13;;;6.70;42.00;;;6.87;59.53;102672.00;4985120;28;20658;-72
2022/03/10 09:08:11;;;;;;;34.53;24.65;;;6.70;40.50;;;6.79;59.42;102668.28;4968850;28;20327;-72
2022/03/10 09:10:41;;;;;;;40.22;24.70;;;6.60;39.90;;;6.93;59.45;102662.53;4962761;28;20266;-71
2022/03/10 09:13:11;;;;;;;33.13;24.77;;;6.70;39.70;;;7.14;59.04;102652.56;4958717;28;20572;-71
2022/03/10 09:15:47;;;;;;;35.72;24.55;;;6.90;39.40;;;7.12;59.12;102664.44;4958139;28;20433;-72
2022/03/10 09:18:17;;;;;;;38.92;25.17;;;6.90;38.80;;;7.08;59.20;102665.72;4958967;28;20211;-72
2022/03/10 09:20:47;;;;;;;35.78;24.40;;;6.90;37.90;;;7.18;58.70;102672.00;4976109;28;20247;-72
2022/03/10 09:23:16;;;;;;;35.22;24.95;;;7.00;37.80;;;7.37;58.46;102672.03;4974876;28;20266;-71
2022/03/10 09:25:45;;;;;;;38.10;24.17;;;7.10;37.00;;;7.37;58.06;102670.22;4975291;28;20207;-70
2022/03/10 09:28:14;;;;;;;40.53;24.50;;;7.10;35.30;;;7.38;58.52;102671.06;4976278;28;20258;-71
2022/03/10 09:30:45;;;;;;;25.30;22.48;;;7.20;35.50;;;7.38;58.27;102660.28;4978840;28;20235;-72
2022/03/10 09:33:14;;;;;;;33.92;24.00;;;7.20;35.40;;;7.60;57.62;102664.59;4959513;28;20183;-71
2022/03/10 09:35:44;;;;;;;32.42;23.58;;;7.30;34.80;;;7.63;57.78;102657.06;4973693;28;20182;-70
2022/03/10 09:38:17;;;;;;;38.25;25.23;;;7.40;33.90;;;7.88;57.30;102661.06;4974811;28;20211;-71
2022/03/10 09:40:52;;;;;;;35.88;23.85;;;7.60;33.60;;;7.87;57.04;102659.34;4976953;28;20250;-72
2022/03/10 09:43:23;;;;;;;34.08;22.92;;;7.70;32.60;;;8.03;56.86;102665.03;4978282;28;20283;-71
2022/03/10 09:45:55;;;;;;;35.22;23.98;;;7.80;32.10;;;7.95;56.81;102658.63;4976587;28;20543;-71
2022/03/10 09:48:24;;;;;;;31.45;24.25;;;7.80;31.10;;;8.13;56.58;102665.84;4974689;28;20183;-72
2022/03/10 09:50:55;;;;;;;32.13;23.35;;;7.90;30.90;;;8.18;56.74;102663.56;4975780;28;20215;-72
2022/03/10 09:53:30;;;;;;;38.13;24.80;;;8.00;30.50;;;8.17;56.55;102667.28;4976113;28;20183;-70
2022/03/10 09:55:59;;;;;;;38.13;23.30;;;8.00;30.00;;;8.28;56.74;102667.13;4975875;28;20231;-71
2022/03/10 09:58:28;;;;;;;35.65;22.38;;;8.00;30.20;;;8.31;56.05;102662.47;4974982;28;20203;-71
2022/03/10 10:01:04;;;;;;;36.63;24.05;;;8.20;29.20;;;8.29;56.36;102663.47;4974375;28;20176;-72
2022/03/10 10:03:33;;;;;;;35.03;21.10;;;8.20;29.30;;;8.42;56.21;102659.63;4974354;28;20191;-73
2022/03/10 10:06:06;;;;;;;33.63;24.27;;;8.20;29.00;;;8.34;56.23;102667.56;4974890;28;20605;-71
2022/03/10 10:08:38;;;;;;;33.75;24.27;;;8.20;28.70;;;8.43;56.16;102669.41;4977490;28;20218;-72
2022/03/10 10:11:08;;;;;;;32.65;24.60;;;8.30;28.90;;;8.46;56.08;102663.72;4957977;28;20187;-72
2022/03/10 10:13:39;;;;;;;35.10;23.02;;;8.30;28.70;;;8.60;55.90;102665.97;4974001;28;20242;-71
2022/03/10 10:16:12;;;;;;;29.48;22.20;;;8.40;28.50;;;8.49;56.42;102663.44;4974736;28;20187;-71
2022/03/10 10:18:44;;;;;;;31.27;23.42;;;8.30;28.60;;;8.83;55.35;102661.91;4979656;28;20246;-72
2022/03/10 10:21:21;;;;;;;28.73;21.55;;;8.50;28.10;;;8.85;55.32;102668.00;4981694;28;20247;-74
2022/03/10 10:23:52;;;;;;;30.83;19.70;;;8.60;27.30;;;8.82;55.34;102670.13;4962567;28;20261;-72
2022/03/10 10:26:26;;;;;;;26.05;21.67;;;8.60;27.10;;;8.94;54.94;102669.81;4975877;28;20213;-73
2022/03/10 10:28:55;;;;;;;31.63;22.67;;;8.70;26.50;;;8.82;54.98;102679.09;4958879;28;20222;-71
2022/03/10 10:31:26;;;;;;;29.65;22.42;;;8.70;26.10;;;8.82;54.76;102670.13;4974697;28;20259;-73